Time;durP1;ratioP1;P1;durP2;ratioP2;P2;SDS_P1;SDS_P2;PMS_P1;PMS_P2;Temp;Humidity;BMP_temperature;BMP_pressure;BME280_temperature;BME280_humidity;BME280_pressure;Samples;Min_cycle;Max_cycle;Signal;HPM_P1;HPM_P2
2022/03/28 00:02:20;;;;;;;25.20;7.53;;;;;;;-145.69;66.17;72976.69;5074690;28;20198;-77
2022/03/28 00:04:47;;;;;;;22.40;7.73;;;;;;;-145.69;65.92;72960.75;5076583;28;20217;-77
2022/03/28 00:07:13;;;;;;;19.83;7.17;;;;;;;-145.69;66.07;72958.78;5076325;28;20202;-77
2022/03/28 00:09:40;;;;;;;21.17;7.50;;;;;;;-145.69;66.28;72962.75;5076739;28;20557;-77
2022/03/28 00:12:07;;;;;;;21.53;7.37;;;;;;;-145.69;66.50;72976.69;5076480;28;20226;-77
2022/03/28 00:14:34;;;;;;;21.73;7.93;;;;;;;-145.69;66.84;72976.69;5076342;28;20249;-77
2022/03/28 00:17:02;;;;;;;26.43;8.97;;;;;;;-145.69;66.41;72968.72;5076308;28;20296;-76
2022/03/28 00:19:28;;;;;;;21.77;7.17;;;;;;;-145.69;66.50;72964.75;5076163;28;20260;-76
2022/03/28 00:21:56;;;;;;;17.93;7.20;;;;;;;-145.69;65.97;72958.78;5076096;28;20252;-76
2022/03/28 00:24:23;;;;;;;20.33;7.57;;;;;;;-145.69;66.33;72954.78;5076287;28;20203;-77
2022/03/28 00:26:49;;;;;;;18.80;7.33;;;;;;;-145.69;66.61;72958.78;5076059;28;20748;-77
2022/03/28 00:29:16;;;;;;;23.27;7.73;;;;;;;-145.69;65.86;72952.78;5076024;28;20207;-76
2022/03/28 00:31:42;;;;;;;18.07;6.83;;;;;;;-145.69;66.03;72952.78;5076075;28;20643;-77
2022/03/28 00:34:10;;;;;;;21.63;8.50;;;;;;;-145.69;65.24;72950.81;5075840;28;20230;-77
2022/03/28 00:36:37;;;;;;;20.87;8.27;;;;;;;-145.69;65.55;72950.81;5076024;28;20243;-77
2022/03/28 00:39:03;;;;;;;18.93;7.13;;;;;;;-145.69;65.61;72942.84;5076265;28;20203;-76
2022/03/28 00:41:29;;;;;;;27.70;7.90;;;;;;;-145.69;63.96;72922.94;5075964;28;20199;-77
2022/03/28 00:43:58;;;;;;;23.53;8.17;;;;;;;-145.69;63.64;72907.00;5075827;28;20199;-77
2022/03/28 00:46:25;;;;;;;25.20;7.90;;;;;;;-145.69;61.55;72875.16;5075793;28;20202;-76
2022/03/28 00:48:52;;;;;;;19.30;7.33;;;;;;;-145.69;61.04;72865.22;5075611;28;20203;-77
2022/03/28 00:51:23;;;;;;;22.87;7.77;;;;;;;-145.69;62.34;72893.09;5075759;28;20222;-76
2022/03/28 00:53:50;;;;;;;20.90;8.60;;;;;;;-145.69;62.81;72897.06;5075414;28;20234;-76
2022/03/28 00:56:17;;;;;;;22.37;7.60;;;;;;;-145.69;63.49;72914.97;5075546;28;20606;-76
2022/03/28 00:58:44;;;;;;;21.88;7.88;;;;;;;-145.69;63.17;72911.00;5075387;28;20445;-76
2022/03/28 01:01:11;;;;;;;26.10;7.53;;;;;;;-145.69;63.36;72914.97;5075280;28;20207;-77
2022/03/28 01:03:38;;;;;;;21.63;7.23;;;;;;;-145.69;63.03;72911.00;5075265;28;20275;-76
2022/03/28 01:06:05;;;;;;;20.53;7.57;;;;;;;-145.69;64.08;72918.97;5075562;28;20202;-76
2022/03/28 01:08:34;;;;;;;24.83;7.77;;;;;;;-145.69;63.53;72911.00;5075170;28;20207;-76
2022/03/28 01:11:04;;;;;;;21.03;7.77;;;;;;;-145.69;62.35;72883.13;5075174;28;20280;-76
2022/03/28 01:13:32;;;;;;;20.07;7.60;;;;;;;-145.69;63.02;72889.09;5074267;28;20233;-77
2022/03/28 01:15:59;;;;;;;20.97;7.50;;;;;;;-145.69;63.36;72895.06;5074961;28;20262;-76
2022/03/28 01:18:28;;;;;;;22.10;7.77;;;;;;;-145.69;64.22;72924.94;5075253;28;20198;-76
2022/03/28 01:20:57;;;;;;;18.57;7.17;;;;;;;-145.69;64.76;72922.94;5075115;28;20203;-76
2022/03/28 01:23:24;;;;;;;23.97;8.17;;;;;;;-145.69;63.33;72897.06;5075132;28;20207;-76
2022/03/28 01:25:52;;;;;;;23.47;7.80;;;;;;;-145.69;63.91;72899.06;5074962;28;20194;-77
2022/03/28 01:28:20;;;;;;;25.20;8.00;;;;;;;-145.69;63.21;72889.09;5074777;28;20195;-76
2022/03/28 01:30:47;;;;;;;24.85;9.18;;;;;;;-145.69;63.34;72895.06;5067341;28;20436;-77
2022/03/28 01:33:15;;;;;;;24.17;8.20;;;;;;;-145.69;62.93;72889.09;5073759;28;20230;-76
2022/03/28 01:35:43;;;;;;;22.00;8.67;;;;;;;-145.69;62.38;72877.16;5074923;28;20194;-77
2022/03/28 01:38:13;;;;;;;20.13;7.70;;;;;;;-145.69;62.58;72893.09;5074810;28;20276;-76
2022/03/28 01:40:42;;;;;;;23.33;8.27;;;;;;;-145.69;62.14;72879.16;5074775;28;20206;-77
2022/03/28 01:43:09;;;;;;;21.73;7.50;;;;;;;-145.69;61.07;72853.28;5074544;28;20654;-76
2022/03/28 01:45:36;;;;;;;22.90;8.27;;;;;;;-145.69;61.38;72847.28;5074844;28;20198;-76
2022/03/28 01:48:03;;;;;;;20.37;7.50;;;;;;;-145.69;60.46;72853.28;5074680;28;20198;-76
2022/03/28 01:50:30;;;;;;;22.27;7.97;;;;;;;-145.69;60.29;72843.31;5074109;28;20190;-76
2022/03/28 01:52:56;;;;;;;27.30;8.40;;;;;;;-145.69;60.30;72843.31;5074339;28;20230;-76
2022/03/28 01:55:25;;;;;;;20.90;7.50;;;;;;;-145.69;59.99;72823.41;5074274;28;20195;-77
2022/03/28 01:57:52;;;;;;;19.70;7.80;;;;;;;-145.69;59.34;72819.44;5074539;28;20693;-76
2022/03/28 02:00:21;;;;;;;18.83;7.50;;;;;;;-145.69;59.70;72827.38;5074118;28;20225;-77
2022/03/28 02:02:48;;;;;;;21.60;8.50;;;;;;;-145.69;60.67;72845.31;5074206;28;20222;-77
2022/03/28 02:05:15;;;;;;;21.30;7.27;;;;;;;-145.69;61.04;72839.34;5074327;28;20207;-77
2022/03/28 02:07:43;;;;;;;21.27;7.70;;;;;;;-145.69;61.04;72851.28;5074022;28;20653;-77
2022/03/28 02:10:13;;;;;;;21.97;7.40;;;;;;;-145.69;62.31;72867.19;5074021;28;20194;-77
2022/03/28 02:12:41;;;;;;;27.47;8.17;;;;;;;-145.69;60.99;72845.31;5074197;28;20281;-77
2022/03/28 02:15:10;;;;;;;18.33;7.47;;;;;;;-145.69;61.00;72843.31;5073954;28;20589;-77
2022/03/28 02:17:37;;;;;;;24.77;8.33;;;;;;;-145.69;60.01;72819.44;5073879;28;20206;-77
2022/03/28 02:20:05;;;;;;;22.43;8.47;;;;;;;-145.69;60.61;72831.38;5073724;28;20233;-76
2022/03/28 02:22:32;;;;;;;20.90;8.27;;;;;;;-145.69;60.59;72835.34;5073539;28;20187;-76
2022/03/28 02:24:58;;;;;;;21.63;8.07;;;;;;;-145.69;61.28;72851.28;5073730;28;20554;-77
2022/03/28 02:27:25;;;;;;;21.97;7.33;;;;;;;-145.69;61.43;72853.28;5073737;28;20396;-77
2022/03/28 02:29:52;;;;;;;22.60;7.47;;;;;;;-145.69;61.76;72849.28;5073822;28;20199;-77
2022/03/28 02:32:19;;;;;;;20.93;7.50;;;;;;;-145.69;61.04;72847.28;5073664;28;20696;-77
2022/03/28 02:34:45;;;;;;;23.10;8.23;;;;;;;-145.69;61.19;72839.34;5073111;28;20256;-76
2022/03/28 02:37:12;;;;;;;24.40;7.67;;;;;;;-145.69;61.20;72845.31;5073372;28;20199;-76
2022/03/28 02:39:39;;;;;;;20.87;7.73;;;;;;;-145.69;61.92;72863.22;5073590;28;20569;-76
2022/03/28 02:42:06;;;;;;;19.10;7.23;;;;;;;-145.69;62.54;72873.19;5073576;28;20202;-77
2022/03/28 02:44:33;;;;;;;25.87;8.17;;;;;;;-145.69;63.11;72881.13;5073355;28;20205;-76
2022/03/28 02:47:00;;;;;;;25.37;7.70;;;;;;;-145.69;64.12;72895.06;5073315;28;20209;-76
2022/03/28 02:49:27;;;;;;;22.67;8.73;;;;;;;-145.69;63.97;72899.06;5073372;28;20206;-77
2022/03/28 02:51:54;;;;;;;22.40;6.93;;;;;;;-145.69;63.81;72883.13;5072901;28;20680;-76
2022/03/28 02:54:20;;;;;;;23.23;8.10;;;;;;;-145.69;61.85;72851.28;5073344;28;20685;-77
2022/03/28 02:56:46;;;;;;;21.10;7.70;;;;;;;-145.69;62.08;72855.25;5073132;28;20202;-77
2022/03/28 02:59:13;;;;;;;21.47;7.53;;;;;;;-145.69;61.48;72835.34;5073364;28;20215;-77
2022/03/28 03:01:40;;;;;;;22.70;8.07;;;;;;;-145.69;62.07;72861.22;5073070;28;20672;-76
2022/03/28 03:04:08;;;;;;;17.77;7.03;;;;;;;-145.69;63.28;72871.19;5072981;28;20259;-76
2022/03/28 03:06:34;;;;;;;27.63;8.03;;;;;;;-145.69;62.73;72863.22;5073075;28;20199;-76
2022/03/28 03:09:00;;;;;;;19.13;7.27;;;;;;;-145.69;63.16;72879.16;5073245;28;20282;-76
2022/03/28 03:11:27;;;;;;;21.07;8.33;;;;;;;-145.69;63.46;72887.09;5073251;28;20199;-76
2022/03/28 03:13:56;;;;;;;25.20;8.37;;;;;;;-145.69;63.54;72887.09;5073071;28;20234;-77
2022/03/28 03:16:23;;;;;;;26.20;7.30;;;;;;;-145.69;63.86;72891.09;5072797;28;20236;-76
2022/03/28 03:18:49;;;;;;;22.17;7.83;;;;;;;-145.69;61.91;72863.22;5072837;28;20209;-76
2022/03/28 03:21:20;;;;;;;22.30;8.47;;;;;;;-145.69;62.83;72871.19;5072810;28;20198;-76
2022/03/28 03:23:47;;;;;;;26.73;8.50;;;;;;;-145.69;62.46;72875.16;5058024;28;20553;-76
2022/03/28 03:26:13;;;;;;;21.13;7.63;;;;;;;-145.69;63.61;72887.09;5052794;28;20543;-76
2022/03/28 03:28:40;;;;;;;22.30;8.07;;;;;;;-145.69;64.03;72909.00;5052871;28;20222;-76
2022/03/28 03:31:07;;;;;;;24.47;8.37;;;;;;;-145.69;64.69;72924.94;5052767;28;20294;-76
2022/03/28 03:33:33;;;;;;;25.13;7.93;;;;;;;-145.69;64.53;72922.94;5058159;28;20210;-77
2022/03/28 03:36:01;;;;;;;23.20;7.87;;;;;;;-145.69;63.86;72907.00;5073226;28;20203;-76
2022/03/28 03:38:30;;;;;;;23.40;8.23;;;;;;;-145.69;63.79;72905.03;5079224;28;20209;-76
2022/03/28 03:40:56;;;;;;;20.53;7.00;;;;;;;-145.69;62.92;72901.03;5079060;28;20252;-76
2022/03/28 03:43:24;;;;;;;27.10;7.57;;;;;;;-145.69;62.21;72879.16;5079573;28;20206;-77
2022/03/28 03:45:50;;;;;;;26.00;8.23;;;;;;;-145.69;62.54;72883.13;5079050;28;20202;-76
2022/03/28 03:48:18;;;;;;;27.77;10.30;;;;;;;-145.69;63.31;72883.13;5078373;28;20555;-76
2022/03/28 03:50:45;;;;;;;26.23;8.93;;;;;;;-145.69;63.67;72887.09;5079141;28;20539;-77
2022/03/28 03:53:11;;;;;;;24.47;8.20;;;;;;;-145.69;63.91;72907.00;5079181;28;20199;-76
2022/03/28 03:55:39;;;;;;;21.83;8.33;;;;;;;-145.69;64.14;72914.97;5079338;28;20213;-76
2022/03/28 03:58:06;;;;;;;20.83;8.10;;;;;;;-145.69;64.88;72920.94;5079264;28;20198;-76
2022/03/28 04:00:33;;;;;;;20.57;7.97;;;;;;;-145.69;65.18;72926.91;5079192;28;20202;-77
2022/03/28 04:02:59;;;;;;;27.30;8.70;;;;;;;-145.69;65.61;72928.91;5079237;28;20203;-76
2022/03/28 04:05:26;;;;;;;21.37;8.13;;;;;;;-145.69;65.59;72944.84;5079472;28;20213;-76
2022/03/28 04:07:52;;;;;;;22.73;7.77;;;;;;;-145.69;65.00;72934.88;5079606;28;20226;-77
2022/03/28 04:10:19;;;;;;;26.33;8.80;;;;;;;-145.69;66.33;72964.75;5079182;28;20205;-77
2022/03/28 04:12:47;;;;;;;24.27;7.63;;;;;;;-145.69;67.08;72982.66;5079319;28;20203;-77
2022/03/28 04:15:13;;;;;;;21.60;8.30;;;;;;;-145.69;67.95;72970.72;5078817;28;20246;-76
2022/03/28 04:17:41;;;;;;;19.33;8.60;;;;;;;-145.69;67.83;72998.59;5079102;28;20205;-76
2022/03/28 04:20:09;;;;;;;22.60;7.80;;;;;;;-145.69;69.02;72994.59;5078949;28;20665;-76
2022/03/28 04:22:36;;;;;;;25.83;8.93;;;;;;;-145.69;70.12;72994.59;5079071;28;20205;-76
2022/03/28 04:25:03;;;;;;;19.63;8.00;;;;;;;-145.69;71.45;73014.50;5079158;28;20207;-77
2022/03/28 04:27:30;;;;;;;23.43;8.57;;;;;;;-145.69;72.47;73032.44;5079026;28;20233;-76
2022/03/28 04:29:58;;;;;;;20.60;8.67;;;;;;;-145.69;73.51;73048.34;5079084;28;20198;-76
2022/03/28 04:32:25;;;;;;;25.60;9.00;;;;;;;-145.69;73.99;73054.31;5078950;28;20434;-77
2022/03/28 04:34:52;;;;;;;23.07;8.63;;;;;;;-145.69;72.39;73022.47;5078978;28;20225;-76
2022/03/28 04:37:18;;;;;;;22.67;8.57;;;;;;;-145.69;71.74;72996.59;5078966;28;20210;-76
2022/03/28 04:39:45;;;;;;;28.73;8.57;;;;;;;-145.69;69.91;72970.72;5079085;28;20194;-76
2022/03/28 04:42:11;;;;;;;21.60;8.10;;;;;;;-145.69;69.11;72962.75;5078671;28;20657;-77
2022/03/28 04:44:38;;;;;;;26.70;8.33;;;;;;;-145.69;68.79;72954.78;5079112;28;20293;-76
2022/03/28 04:47:06;;;;;;;26.27;8.83;;;;;;;-145.69;69.93;72954.78;5078924;28;20205;-76
2022/03/28 04:49:33;;;;;;;24.07;9.23;;;;;;;-145.69;69.65;72954.78;5074808;28;20207;-76
2022/03/28 04:52:00;;;;;;;26.30;9.23;;;;;;;-145.69;68.97;72926.91;5075612;28;20202;-76
2022/03/28 04:54:26;;;;;;;25.40;9.50;;;;;;;-145.69;69.27;72948.81;5075484;28;20230;-76
2022/03/28 04:56:53;;;;;;;28.83;9.40;;;;;;;-145.69;68.63;72940.84;5076160;28;20203;-76
2022/03/28 04:59:19;;;;;;;23.20;8.40;;;;;;;-145.69;69.48;72958.78;5075575;28;20234;-76
2022/03/28 05:01:46;;;;;;;27.90;9.63;;;;;;;-145.69;69.98;72964.75;5075354;28;20681;-76
2022/03/28 05:04:14;;;;;;;26.53;8.90;;;;;;;-145.69;71.00;72974.69;5075389;28;20662;-76
2022/03/28 05:06:40;;;;;;;24.00;9.30;;;;;;;-145.69;71.63;72990.63;5075430;28;20199;-77
2022/03/28 05:09:07;;;;;;;25.43;9.33;;;;;;;-145.69;71.27;72994.59;5075423;28;20225;-76
2022/03/28 05:11:33;;;;;;;25.10;9.57;;;;;;;-145.69;71.56;72986.63;5074949;28;20194;-76
2022/03/28 05:14:00;;;;;;;29.07;9.20;;;;;;;-145.69;71.69;72994.59;5075358;28;20232;-76
2022/03/28 05:16:27;;;;;;;31.87;9.23;;;;;;;-145.69;71.11;72972.72;5074754;28;20318;-76
2022/03/28 05:18:53;;;;;;;22.80;8.27;;;;;;;-145.69;70.41;72970.72;5075274;28;20202;-76
2022/03/28 05:21:21;;;;;;;24.23;9.47;;;;;;;-145.69;70.13;72962.75;5075256;28;20232;-77
2022/03/28 05:23:48;;;;;;;27.80;9.47;;;;;;;-145.69;69.42;72950.81;5074958;28;20675;-76
2022/03/28 05:26:14;;;;;;;22.37;9.30;;;;;;;-145.69;70.08;72948.81;5075662;28;20616;-76
2022/03/28 05:28:40;;;;;;;24.33;8.23;;;;;;;-145.69;69.83;72944.84;5075189;28;20198;-76
2022/03/28 05:31:07;;;;;;;23.00;8.37;;;;;;;-145.69;70.28;72938.88;5075166;28;20308;-76
2022/03/28 05:33:34;;;;;;;21.27;8.60;;;;;;;-145.69;70.91;72950.81;5060691;28;20248;-76
2022/03/28 05:36:01;;;;;;;23.97;8.63;;;;;;;-145.69;71.36;72954.78;5054788;28;20287;-77
2022/03/28 05:38:29;;;;;;;25.20;9.20;;;;;;;-145.69;71.88;72964.75;5054679;28;20215;-76
2022/03/28 05:40:56;;;;;;;27.67;9.37;;;;;;;-145.69;73.12;72974.69;5065089;28;20282;-76
2022/03/28 05:43:23;;;;;;;22.57;9.00;;;;;;;-145.69;74.19;72986.63;5074679;28;20203;-76
2022/03/28 05:45:50;;;;;;;23.73;8.60;;;;;;;-145.69;74.12;72986.63;5074482;28;20199;-76
2022/03/28 05:48:18;;;;;;;22.40;8.57;;;;;;;-145.69;72.81;72968.72;5074577;28;20202;-76
2022/03/28 05:50:44;;;;;;;30.33;9.30;;;;;;;-145.69;72.22;72954.78;5074382;28;20298;-76
2022/03/28 05:53:13;;;;;;;25.20;9.07;;;;;;;-145.69;72.58;72936.88;5074302;28;20813;-76
2022/03/28 05:55:41;;;;;;;26.57;9.20;;;;;;;-145.69;72.50;72938.88;5074268;28;20227;-76
2022/03/28 05:58:08;;;;;;;22.93;8.93;;;;;;;-145.69;71.42;72922.94;5074363;28;20209;-76
2022/03/28 06:00:35;;;;;;;27.57;9.90;;;;;;;-145.69;71.16;72914.97;5074009;28;20203;-76
2022/03/28 06:03:01;;;;;;;28.67;9.83;;;;;;;-145.69;70.84;72911.00;5074169;28;20195;-76
2022/03/28 06:05:28;;;;;;;23.27;8.97;;;;;;;-145.69;70.97;72903.03;5074178;28;20299;-76
2022/03/28 06:07:55;;;;;;;26.40;9.47;;;;;;;-145.69;72.12;72899.06;5074062;28;20717;-77
2022/03/28 06:10:21;;;;;;;24.60;9.00;;;;;;;-145.69;71.13;72863.22;5073957;28;20286;-77
2022/03/28 06:12:49;;;;;;;23.00;9.27;;;;;;;-145.69;70.23;72843.31;5074168;28;20206;-76
2022/03/28 06:15:15;;;;;;;27.27;9.27;;;;;;;-145.69;68.88;72821.41;5073692;28;20780;-76
2022/03/28 06:17:43;;;;;;;39.13;9.73;;;;;;;-145.69;68.42;72805.50;5074026;28;20206;-76
2022/03/28 06:20:11;;;;;;;31.03;10.00;;;;;;;-145.69;67.10;72765.69;5073708;28;20210;-76
2022/03/28 06:22:37;;;;;;;19.67;8.70;;;;;;;-145.69;67.53;72763.69;5073809;28;20206;-76
2022/03/28 06:25:05;;;;;;;27.37;9.10;;;;;;;-145.69;65.94;72739.81;5073807;28;20605;-76
2022/03/28 06:27:32;;;;;;;26.30;9.47;;;;;;;-145.69;63.82;72721.88;5073729;28;20205;-76
2022/03/28 06:30:00;;;;;;;26.67;9.47;;;;;;;-145.69;64.67;72715.91;5073829;28;20210;-77
2022/03/28 06:32:26;;;;;;;23.87;9.33;;;;;;;-145.69;65.58;72727.88;5073672;28;20202;-76
2022/03/28 06:34:54;;;;;;;23.73;9.20;;;;;;;-145.69;65.55;72717.91;5073747;28;20230;-77
2022/03/28 06:37:23;;;;;;;27.80;8.90;;;;;;;-145.69;62.81;72680.09;5073616;28;20199;-76
2022/03/28 06:39:49;;;;;;;34.97;10.03;;;;;;;-145.69;62.24;72634.31;5073331;28;20655;-77
2022/03/28 06:42:16;;;;;;;24.17;9.37;;;;;;;-145.69;61.31;72620.38;5073620;28;20195;-77
2022/03/28 06:44:42;;;;;;;25.67;9.63;;;;;;;-145.69;60.86;72616.41;5073490;28;20546;-76
2022/03/28 06:47:11;;;;;;;23.80;9.77;;;;;;;-145.69;61.46;72608.44;5073261;28;20566;-77
2022/03/28 06:49:37;;;;;;;23.27;8.67;;;;;;;-145.69;60.89;72594.50;5073139;28;20199;-76
2022/03/28 06:52:08;;;;;;;22.23;8.93;;;;;;;-145.69;61.44;72580.56;5073278;28;20203;-76
2022/03/28 06:54:35;;;;;;;26.03;9.47;;;;;;;-145.69;62.54;72556.69;5072951;28;20226;-78
2022/03/28 06:57:04;;;;;;;31.10;9.87;;;;;;;-145.69;62.07;72530.81;5073118;28;20203;-77
2022/03/28 06:59:30;;;;;;;29.07;9.23;;;;;;;-145.69;59.54;72465.13;5073137;28;20282;-76
2022/03/28 07:01:57;;;;;;;30.60;9.00;;;;;;;-145.69;57.40;72429.28;5072758;28;20680;-76
2022/03/28 07:04:25;;;;;;;21.23;8.63;;;;;;;-145.69;59.74;72429.28;5073243;28;20543;-76
2022/03/28 07:06:52;;;;;;;25.70;9.10;;;;;;;-145.69;58.17;72415.38;5073231;28;20215;-76
2022/03/28 07:09:19;;;;;;;21.37;8.93;;;;;;;-145.69;58.63;72405.41;5073073;28;20205;-77
2022/03/28 07:11:46;;;;;;;39.50;10.30;;;;;;;-145.69;58.75;72369.59;5072302;28;20207;-77
2022/03/28 07:14:13;;;;;;;68.70;10.53;;;;;;;-145.69;58.73;72357.66;5072786;28;20199;-77
2022/03/28 07:16:42;;;;;;;56.37;11.13;;;;;;;-145.69;57.58;72309.88;5072435;28;20237;-77
2022/03/28 07:19:09;;;;;;;31.27;9.20;;;;;;;-145.69;58.18;72305.91;5072965;28;20210;-77
2022/03/28 07:21:37;;;;;;;36.57;9.17;;;;;;;-145.69;59.01;72289.97;5072958;28;20214;-77
2022/03/28 07:24:03;;;;;;;22.63;8.57;;;;;;;-145.69;56.77;72250.16;5072972;28;20234;-77
2022/03/28 07:26:30;;;;;;;32.33;8.93;;;;;;;-145.69;56.60;72242.22;5072750;28;20228;-77
2022/03/28 07:29:02;;;;;;;24.03;8.97;;;;;;;-145.69;57.38;72224.28;5072729;28;20202;-76
2022/03/28 07:31:29;;;;;;;21.07;8.27;;;;;;;-145.69;56.91;72206.38;5072779;28;20222;-79
2022/03/28 07:34:29;;;;;;;23.83;9.07;;;;;;;-145.69;57.80;72198.41;5072797;28;20210;-77
2022/03/28 07:36:44;;;;;;;31.23;8.73;;;;;;;-145.69;59.06;72162.59;5068022;28;20198;-78
2022/03/28 07:39:11;;;;;;;22.13;9.20;;;;;;;-145.69;60.74;72146.69;5072824;28;20285;-78
2022/03/28 07:41:38;;;;;;;22.17;8.27;;;;;;;-145.69;60.19;72132.75;5072875;28;20285;-77
2022/03/28 07:44:05;;;;;;;64.83;11.10;;;;;;;-145.69;56.77;72106.88;5072798;28;20207;-76
2022/03/28 07:46:34;;;;;;;124.37;12.80;;;;;;;-145.69;54.61;72071.03;5072551;28;20206;-77
2022/03/28 07:49:01;;;;;;;52.37;10.33;;;;;;;-145.69;54.41;72043.19;5072477;28;20604;-77
2022/03/28 07:51:30;;;;;;;43.27;10.53;;;;;;;-145.69;54.99;72011.34;5072623;28;20686;-77
2022/03/28 07:54:03;;;;;;;21.63;8.93;;;;;;;-145.69;48.77;71979.50;5072498;28;20285;-77
2022/03/28 07:56:31;;;;;;;23.93;10.10;;;;;;;-145.69;42.77;71961.59;5072731;28;20226;-77
2022/03/28 07:58:57;;;;;;;31.27;10.33;;;;;;;-145.69;43.08;71929.75;5072655;28;20616;-77
2022/03/28 08:01:24;;;;;;;23.37;9.60;;;;;;;-145.69;42.16;71903.88;5072119;28;20195;-77
2022/03/28 08:03:51;;;;;;;23.23;10.03;;;;;;;-145.69;43.26;71874.03;5072420;28;20199;-77
2022/03/28 08:06:20;;;;;;;32.47;10.67;;;;;;;-145.69;42.25;71848.16;5072232;28;20199;-77
2022/03/28 08:08:48;;;;;;;23.23;9.60;;;;;;;-145.69;42.84;71822.28;5072343;28;20333;-77
2022/03/28 08:11:20;;;;;;;22.83;9.80;;;;;;;-145.69;39.85;71808.34;5072549;28;20207;-77
2022/03/28 08:13:46;;;;;;;26.25;11.35;;;;;;;-145.69;39.45;71790.44;5072087;28;20446;-78
2022/03/28 08:16:13;;;;;;;28.83;10.60;;;;;;;-145.69;38.99;71756.59;5072109;28;20239;-77
2022/03/28 08:18:41;;;;;;;26.30;11.05;;;;;;;-145.69;36.99;71726.75;5072328;28;20294;-77
2022/03/28 08:21:08;;;;;;;25.33;11.05;;;;;;;-145.69;35.46;71708.84;5072435;28;20289;-77
2022/03/28 08:23:35;;;;;;;22.17;9.77;;;;;;;-145.69;35.89;71677.00;5074421;28;20203;-78
2022/03/28 08:26:05;;;;;;;22.80;10.25;;;;;;;-145.69;37.55;71645.16;5076163;28;20202;-79
2022/03/28 08:28:33;;;;;;;23.05;10.48;;;;;;;-145.69;36.08;71633.22;5076096;28;20203;-78
2022/03/28 08:31:00;;;;;;;24.33;10.88;;;;;;;-145.69;34.26;71623.28;5075719;28;20203;-78
2022/03/28 08:33:26;;;;;;;23.83;10.75;;;;;;;-145.69;34.57;71623.28;5075541;28;20251;-77
2022/03/28 08:35:53;;;;;;;22.05;10.30;;;;;;;-145.69;35.75;71585.47;5075600;28;20237;-78
2022/03/28 08:38:21;;;;;;;21.70;9.95;;;;;;;-145.69;35.92;71571.53;5073624;28;20202;-78
2022/03/28 08:40:48;;;;;;;24.67;10.15;;;;;;;-145.69;34.04;71563.56;5057111;28;20286;-79
2022/03/28 08:43:18;;;;;;;24.63;10.15;;;;;;;-145.69;35.39;71531.75;5055682;28;20210;-77
2022/03/28 08:45:46;;;;;;;23.17;10.10;;;;;;;-145.69;35.01;71515.81;5055618;28;20211;-78
2022/03/28 08:48:14;;;;;;;20.10;8.73;;;;;;;-145.69;33.98;71513.81;5055493;28;20298;-77
2022/03/28 08:50:41;;;;;;;23.10;9.68;;;;;;;-145.69;33.22;71509.84;5055795;28;20200;-77
2022/03/28 08:53:08;;;;;;;20.65;9.65;;;;;;;-145.69;32.21;71505.88;5055519;28;20548;-78
2022/03/28 08:55:35;;;;;;;21.08;8.93;;;;;;;-145.69;32.02;71501.88;5055435;28;20231;-77
2022/03/28 08:58:01;;;;;;;21.92;9.45;;;;;;;-145.69;33.27;71482.00;5055296;28;20444;-76
2022/03/28 09:00:28;;;;;;;18.08;8.55;;;;;;;-145.69;32.35;71478.00;5060797;28;20194;-77
2022/03/28 09:02:58;;;;;;;23.98;9.07;;;;;;;-145.69;31.73;71480.00;5075306;28;20206;-77
2022/03/28 09:05:30;;;;;;;18.85;9.13;;;;;;;-145.69;29.67;71485.97;5075180;28;20650;-77
2022/03/28 09:07:58;;;;;;;19.98;9.07;;;;;;;-145.69;30.58;71499.91;5075417;28;20289;-77
2022/03/28 09:10:27;;;;;;;20.10;8.63;;;;;;;-145.69;30.63;71482.00;5074944;28;20246;-77
2022/03/28 09:13:01;;;;;;;23.35;9.30;;;;;;;-145.69;30.49;71472.03;5075114;28;20256;-77
2022/03/28 09:15:42;;;;;;;20.48;8.60;;;;;;;-145.69;31.49;71470.06;5074916;28;20238;-77
2022/03/28 09:18:20;;;;;;;24.77;9.95;;;;;;;-145.69;30.44;71491.94;5075114;28;20209;-78
2022/03/28 09:20:49;;;;;;;26.55;9.73;;;;;;;-145.69;31.19;71495.91;5075249;28;20227;-77
2022/03/28 09:23:31;;;;;;;26.35;10.57;;;;;;;-145.69;29.85;71507.84;5075054;28;20207;-77
2022/03/28 09:25:58;;;;;;;19.42;9.05;;;;;;;-145.69;33.62;71482.00;5074943;28;20725;-78
2022/03/28 09:28:25;;;;;;;26.02;10.23;;;;;;;-145.69;30.00;71501.88;5064611;28;20199;-78
2022/03/28 09:30:52;;;;;;;26.13;9.45;;;;;;;-145.69;29.62;71499.91;5054786;28;20298;-77
2022/03/28 09:33:20;;;;;;;22.15;9.05;;;;;;;-145.69;30.24;71513.81;5054702;28;20584;-78
2022/03/28 09:35:47;;;;;;;25.95;9.52;;;;;;;-145.69;30.03;71480.00;5053878;28;20231;-78
2022/03/28 09:38:18;;;;;;;26.50;10.02;;;;;;;-145.69;29.45;71489.94;5054796;28;20393;-77
2022/03/28 09:40:51;;;;;;;20.48;10.00;;;;;;;-145.69;29.84;71482.00;5062594;28;20199;-77
2022/03/28 09:43:20;;;;;;;23.23;10.00;;;;;;;-145.69;30.57;71468.06;5074856;28;20199;-77
2022/03/28 09:45:50;;;;;;;24.05;8.75;;;;;;;-145.69;30.59;71456.13;5074524;28;20661;-78
2022/03/28 09:48:19;;;;;;;21.15;8.90;;;;;;;-145.69;31.17;71426.28;5074496;28;20298;-78
2022/03/28 09:50:49;;;;;;;30.15;10.50;;;;;;;-145.69;30.39;71436.22;5074477;28;20203;-78
2022/03/28 09:53:19;;;;;;;28.60;9.77;;;;;;;-145.69;30.70;71434.22;5076176;28;20252;-77
2022/03/28 09:55:51;;;;;;;22.30;9.52;;;;;;;-145.69;30.62;71416.31;5074371;28;20230;-78
2022/03/28 09:58:39;;;;;;;23.95;9.60;;;;;;;-145.69;30.33;71382.50;5074339;28;20202;-78
2022/03/28 10:01:08;;;;;;;25.17;10.48;;;;;;;-145.69;28.32;71402.41;5067203;28;20203;-77
2022/03/28 10:03:36;;;;;;;24.80;9.60;;;;;;;-145.69;31.66;71408.38;5074006;28;20199;-78
2022/03/28 10:06:06;;;;;;;21.15;9.07;;;;;;;-145.69;28.10;71406.38;5074092;28;20198;-78
2022/03/28 10:08:33;;;;;;;22.08;10.25;;;;;;;-145.69;28.19;71422.28;5074465;28;20228;-79
2022/03/28 10:11:00;;;;;;;19.38;8.98;;;;;;;-145.69;28.15;71418.31;5074134;28;20236;-79
2022/03/28 10:13:29;;;;;;;19.17;9.27;;;;;;;-145.69;28.32;71426.28;5074093;28;20203;-79
2022/03/28 10:15:56;;;;;;;20.33;9.15;;;;;;;-145.69;28.53;71402.41;5073849;28;20231;-79
2022/03/28 10:18:22;;;;;;;23.40;9.13;;;;;;;-145.69;29.82;71390.47;5073609;28;20195;-79
2022/03/28 10:20:54;;;;;;;19.70;8.98;;;;;;;-145.69;27.82;71362.59;5074011;28;20203;-80
2022/03/28 10:23:26;;;;;;;19.73;8.30;;;;;;;-145.69;27.62;71374.53;5073824;28;20226;-79
2022/03/28 10:25:56;;;;;;;21.40;9.75;;;;;;;-145.69;29.69;71348.66;5073739;28;20199;-79
2022/03/28 10:28:23;;;;;;;20.83;9.63;;;;;;;-145.69;28.98;71354.63;5073877;28;20203;-79
2022/03/28 10:30:49;;;;;;;18.45;8.95;;;;;;;-145.69;28.48;71350.66;5073507;28;20203;-79
2022/03/28 10:33:19;;;;;;;19.27;9.07;;;;;;;-145.69;28.29;71334.75;5073542;28;20636;-79
2022/03/28 10:35:59;;;;;;;18.33;8.52;;;;;;;-145.69;28.62;71302.91;5073451;28;20318;-80
2022/03/28 10:38:26;;;;;;;25.33;9.38;;;;;;;-145.69;27.75;71298.94;5073383;28;20240;-79
2022/03/28 10:40:55;;;;;;;19.63;7.15;;;;;;;-145.69;26.47;71302.91;5073645;28;20206;-80
2022/03/28 10:43:25;;;;;;;16.15;7.90;;;;;;;-145.69;27.73;71302.91;5073447;28;20239;-79
2022/03/28 10:45:55;;;;;;;16.83;8.25;;;;;;;-145.69;28.21;71298.94;5072853;28;20209;-80
2022/03/28 10:48:36;;;;;;;16.75;8.20;;;;;;;-145.69;26.85;71296.94;5073021;28;20207;-80
2022/03/28 10:51:05;;;;;;;21.67;8.93;;;;;;;-145.69;26.62;71269.06;5076685;28;20290;-79
2022/03/28 10:53:39;;;;;;;16.05;7.57;;;;;;;-145.69;26.30;71304.91;5073359;28;20199;-80
2022/03/28 10:56:11;;;;;;;19.25;8.48;;;;;;;-145.69;26.27;71298.94;5073282;28;20351;-79
2022/03/28 10:58:39;;;;;;;19.30;8.15;;;;;;;-145.69;26.64;71285.00;5073237;28;20194;-79
2022/03/28 11:01:26;;;;;;;20.52;8.95;;;;;;;-145.69;27.65;71259.13;5072962;28;20198;-80
2022/03/28 11:04:01;;;;;;;19.88;8.18;;;;;;;-145.69;27.29;71255.16;5072829;28;20668;-80
2022/03/28 11:06:59;;;;;;;16.15;8.60;;;;;;;-145.69;27.16;71275.03;5073128;28;20225;-80
2022/03/28 11:09:48;;;;;;;20.98;8.32;;;;;;;-145.69;27.42;71249.19;5072945;28;20199;-80
2022/03/28 11:12:17;;;;;;;16.40;7.53;;;;;;;-145.69;26.06;71233.25;5072963;28;20558;-79
2022/03/28 11:14:56;;;;;;;18.02;7.95;;;;;;;-145.69;27.08;71235.25;5073022;28;20199;-80